sensor_id;sensor_type;location;lat;lon;timestamp;temperature;humidity
46378;DHT22;32083;47.360;9.650;2024-03-29T05:00:24;11.20;80.30
46378;DHT22;32083;47.360;9.650;2024-03-29T05:02:51;11.30;80.10
46378;DHT22;32083;47.360;9.650;2024-03-29T05:05:17;11.30;80.50
46378;DHT22;32083;47.360;9.650;2024-03-29T05:07:43;11.30;80.60
46378;DHT22;32083;47.360;9.650;2024-03-29T05:10:09;11.40;79.30
46378;DHT22;32083;47.360;9.650;2024-03-29T05:12:38;11.50;80.50
46378;DHT22;32083;47.360;9.650;2024-03-29T05:15:04;11.60;79.50
46378;DHT22;32083;47.360;9.650;2024-03-29T05:17:30;11.50;79.90
46378;DHT22;32083;47.360;9.650;2024-03-29T05:19:57;11.60;79.70
46378;DHT22;32083;47.360;9.650;2024-03-29T05:22:24;11.60;80.90
46378;DHT22;32083;47.360;9.650;2024-03-29T05:24:53;11.50;80.80
46378;DHT22;32083;47.360;9.650;2024-03-29T05:27:22;11.50;81.10
46378;DHT22;32083;47.360;9.650;2024-03-29T05:29:48;11.60;80.30
46378;DHT22;32083;47.360;9.650;2024-03-29T05:32:14;11.50;81.30
46378;DHT22;32083;47.360;9.650;2024-03-29T05:34:40;11.60;81.30
46378;DHT22;32083;47.360;9.650;2024-03-29T05:37:07;11.60;81.40
46378;DHT22;32083;47.360;9.650;2024-03-29T05:39:33;11.70;81.60
46378;DHT22;32083;47.360;9.650;2024-03-29T05:41:59;11.70;82.30
46378;DHT22;32083;47.360;9.650;2024-03-29T05:44:25;11.80;82.10
46378;DHT22;32083;47.360;9.650;2024-03-29T05:46:51;11.90;82.20
46378;DHT22;32083;47.360;9.650;2024-03-29T05:49:17;12.00;81.90
46378;DHT22;32083;47.360;9.650;2024-03-29T05:51:43;12.00;83.10
46378;DHT22;32083;47.360;9.650;2024-03-29T05:54:09;12.10;80.90
46378;DHT22;32083;47.360;9.650;2024-03-29T05:56:35;12.10;82.10
46378;DHT22;32083;47.360;9.650;2024-03-29T05:59:01;12.20;81.60
46378;DHT22;32083;47.360;9.650;2024-03-29T06:01:27;12.30;81.60
46378;DHT22;32083;47.360;9.650;2024-03-29T06:03:53;12.40;81.80
46378;DHT22;32083;47.360;9.650;2024-03-29T06:06:20;12.40;81.60
46378;DHT22;32083;47.360;9.650;2024-03-29T06:08:50;12.60;81.60
46378;DHT22;32083;47.360;9.650;2024-03-29T06:11:16;12.80;82.70
46378;DHT22;32083;47.360;9.650;2024-03-29T06:13:42;13.10;81.70
46378;DHT22;32083;47.360;9.650;2024-03-29T06:16:21;13.20;81.60
46378;DHT22;32083;47.360;9.650;2024-03-29T06:19:06;13.20;80.10
46378;DHT22;32083;47.360;9.650;2024-03-29T06:21:32;13.20;81.20
46378;DHT22;32083;47.360;9.650;2024-03-29T06:24:09;13.20;80.50
46378;DHT22;32083;47.360;9.650;2024-03-29T06:26:38;13.10;79.50
46378;DHT22;32083;47.360;9.650;2024-03-29T06:29:04;13.10;81.10
46378;DHT22;32083;47.360;9.650;2024-03-29T06:31:30;13.10;82.30
46378;DHT22;32083;47.360;9.650;2024-03-29T06:33:57;13.40;81.50
46378;DHT22;32083;47.360;9.650;2024-03-29T06:36:24;13.40;81.30
46378;DHT22;32083;47.360;9.650;2024-03-29T06:38:51;13.50;81.00
46378;DHT22;32083;47.360;9.650;2024-03-29T06:41:17;13.40;81.10
46378;DHT22;32083;47.360;9.650;2024-03-29T06:43:43;13.50;81.80
46378;DHT22;32083;47.360;9.650;2024-03-29T06:46:12;13.50;80.60
46378;DHT22;32083;47.360;9.650;2024-03-29T06:48:38;13.90;80.30
46378;DHT22;32083;47.360;9.650;2024-03-29T06:51:04;14.10;80.70
46378;DHT22;32083;47.360;9.650;2024-03-29T06:53:30;14.40;80.40
46378;DHT22;32083;47.360;9.650;2024-03-29T06:55:56;14.60;79.00
46378;DHT22;32083;47.360;9.650;2024-03-29T06:58:23;14.70;78.10
46378;DHT22;32083;47.360;9.650;2024-03-29T07:00:49;14.80;79.40
46378;DHT22;32083;47.360;9.650;2024-03-29T07:03:17;14.90;79.30
46378;DHT22;32083;47.360;9.650;2024-03-29T07:05:45;15.00;79.30
46378;DHT22;32083;47.360;9.650;2024-03-29T07:08:11;15.10;79.20
46378;DHT22;32083;47.360;9.650;2024-03-29T07:10:37;15.30;78.30
46378;DHT22;32083;47.360;9.650;2024-03-29T07:13:04;15.40;79.70
46378;DHT22;32083;47.360;9.650;2024-03-29T07:15:30;15.40;80.40
46378;DHT22;32083;47.360;9.650;2024-03-29T07:17:56;15.40;78.90
46378;DHT22;32083;47.360;9.650;2024-03-29T07:20:25;15.50;78.30
46378;DHT22;32083;47.360;9.650;2024-03-29T07:22:51;15.70;79.60
46378;DHT22;32083;47.360;9.650;2024-03-29T07:25:17;15.80;78.80
46378;DHT22;32083;47.360;9.650;2024-03-29T07:27:43;15.90;80.00
46378;DHT22;32083;47.360;9.650;2024-03-29T07:30:10;15.90;80.60
46378;DHT22;32083;47.360;9.650;2024-03-29T07:32:37;15.90;78.90
46378;DHT22;32083;47.360;9.650;2024-03-29T07:35:03;16.00;78.90
46378;DHT22;32083;47.360;9.650;2024-03-29T07:37:29;16.10;76.80
46378;DHT22;32083;47.360;9.650;2024-03-29T07:39:55;16.20;77.30
46378;DHT22;32083;47.360;9.650;2024-03-29T07:42:22;16.30;77.00
46378;DHT22;32083;47.360;9.650;2024-03-29T07:44:48;16.40;75.90
46378;DHT22;32083;47.360;9.650;2024-03-29T07:47:14;16.50;76.50
46378;DHT22;32083;47.360;9.650;2024-03-29T07:49:40;16.50;78.50
46378;DHT22;32083;47.360;9.650;2024-03-29T07:52:06;16.60;78.00
46378;DHT22;32083;47.360;9.650;2024-03-29T07:54:34;16.40;75.40
46378;DHT22;32083;47.360;9.650;2024-03-29T07:57:00;16.30;76.90
46378;DHT22;32083;47.360;9.650;2024-03-29T07:59:28;16.20;77.00
46378;DHT22;32083;47.360;9.650;2024-03-29T08:01:54;16.20;79.40
46378;DHT22;32083;47.360;9.650;2024-03-29T08:04:21;16.10;77.50
46378;DHT22;32083;47.360;9.650;2024-03-29T08:06:47;16.10;79.70
46378;DHT22;32083;47.360;9.650;2024-03-29T08:09:13;16.00;79.60
46378;DHT22;32083;47.360;9.650;2024-03-29T08:11:40;15.90;79.50
46378;DHT22;32083;47.360;9.650;2024-03-29T08:14:06;15.90;78.60
46378;DHT22;32083;47.360;9.650;2024-03-29T08:16:33;16.00;79.50
46378;DHT22;32083;47.360;9.650;2024-03-29T08:18:59;15.90;78.80
46378;DHT22;32083;47.360;9.650;2024-03-29T08:21:25;15.90;78.70
46378;DHT22;32083;47.360;9.650;2024-03-29T08:23:55;16.10;77.90
46378;DHT22;32083;47.360;9.650;2024-03-29T08:26:22;16.20;76.80
46378;DHT22;32083;47.360;9.650;2024-03-29T08:28:48;16.30;79.70
46378;DHT22;32083;47.360;9.650;2024-03-29T08:31:15;16.30;79.80
46378;DHT22;32083;47.360;9.650;2024-03-29T08:33:42;16.40;78.90
46378;DHT22;32083;47.360;9.650;2024-03-29T08:36:09;16.50;79.10
46378;DHT22;32083;47.360;9.650;2024-03-29T08:38:37;16.60;78.50
46378;DHT22;32083;47.360;9.650;2024-03-29T08:41:04;16.70;80.20
46378;DHT22;32083;47.360;9.650;2024-03-29T08:43:30;16.70;81.50
46378;DHT22;32083;47.360;9.650;2024-03-29T08:45:56;16.90;79.90
46378;DHT22;32083;47.360;9.650;2024-03-29T08:48:23;17.20;77.50
46378;DHT22;32083;47.360;9.650;2024-03-29T08:50:50;17.30;79.90
46378;DHT22;32083;47.360;9.650;2024-03-29T08:53:16;17.40;79.90
46378;DHT22;32083;47.360;9.650;2024-03-29T08:55:42;17.40;80.50
46378;DHT22;32083;47.360;9.650;2024-03-29T08:58:08;17.50;77.10
46378;DHT22;32083;47.360;9.650;2024-03-29T09:00:33;17.50;77.20
46378;DHT22;32083;47.360;9.650;2024-03-29T09:02:59;17.50;79.40
46378;DHT22;32083;47.360;9.650;2024-03-29T09:05:27;17.60;79.70
46378;DHT22;32083;47.360;9.650;2024-03-29T09:07:56;17.60;79.10
46378;DHT22;32083;47.360;9.650;2024-03-29T09:10:23;17.60;79.10
46378;DHT22;32083;47.360;9.650;2024-03-29T09:12:50;17.70;81.20
46378;DHT22;32083;47.360;9.650;2024-03-29T09:15:16;17.70;79.90
46378;DHT22;32083;47.360;9.650;2024-03-29T09:17:43;17.80;78.80
46378;DHT22;32083;47.360;9.650;2024-03-29T09:20:10;17.90;77.00
46378;DHT22;32083;47.360;9.650;2024-03-29T09:22:36;18.10;76.40
46378;DHT22;32083;47.360;9.650;2024-03-29T09:25:03;18.10;77.40
46378;DHT22;32083;47.360;9.650;2024-03-29T09:27:29;18.10;76.60
46378;DHT22;32083;47.360;9.650;2024-03-29T09:29:55;18.10;79.00
46378;DHT22;32083;47.360;9.650;2024-03-29T09:32:22;18.20;78.80
46378;DHT22;32083;47.360;9.650;2024-03-29T09:34:48;18.20;78.30
46378;DHT22;32083;47.360;9.650;2024-03-29T09:37:14;18.30;78.20
46378;DHT22;32083;47.360;9.650;2024-03-29T09:39:41;18.30;77.80
46378;DHT22;32083;47.360;9.650;2024-03-29T09:42:07;18.40;76.30
46378;DHT22;32083;47.360;9.650;2024-03-29T09:44:35;18.60;77.40
46378;DHT22;32083;47.360;9.650;2024-03-29T09:47:05;18.60;77.10
46378;DHT22;32083;47.360;9.650;2024-03-29T09:49:32;18.70;74.10
46378;DHT22;32083;47.360;9.650;2024-03-29T09:51:59;18.80;75.90
46378;DHT22;32083;47.360;9.650;2024-03-29T09:54:29;18.80;75.50
46378;DHT22;32083;47.360;9.650;2024-03-29T09:56:58;18.70;76.20
46378;DHT22;32083;47.360;9.650;2024-03-29T09:59:24;18.80;73.50
46378;DHT22;32083;47.360;9.650;2024-03-29T10:01:54;18.90;74.90
46378;DHT22;32083;47.360;9.650;2024-03-29T10:04:23;18.90;76.00
46378;DHT22;32083;47.360;9.650;2024-03-29T10:06:50;18.90;74.90
46378;DHT22;32083;47.360;9.650;2024-03-29T10:09:18;19.00;74.20
46378;DHT22;32083;47.360;9.650;2024-03-29T10:11:44;19.00;76.40
46378;DHT22;32083;47.360;9.650;2024-03-29T10:14:11;19.00;74.40
46378;DHT22;32083;47.360;9.650;2024-03-29T10:16:37;19.00;74.40
46378;DHT22;32083;47.360;9.650;2024-03-29T10:19:04;19.10;74.30
46378;DHT22;32083;47.360;9.650;2024-03-29T10:21:30;19.10;73.90
46378;DHT22;32083;47.360;9.650;2024-03-29T10:23:56;19.20;73.80
46378;DHT22;32083;47.360;9.650;2024-03-29T10:26:22;19.20;73.50
46378;DHT22;32083;47.360;9.650;2024-03-29T10:28:48;19.20;73.50
46378;DHT22;32083;47.360;9.650;2024-03-29T10:31:15;19.20;73.00
46378;DHT22;32083;47.360;9.650;2024-03-29T10:33:44;19.20;73.50
46378;DHT22;32083;47.360;9.650;2024-03-29T10:36:10;19.20;72.20
46378;DHT22;32083;47.360;9.650;2024-03-29T10:38:38;19.30;72.20
46378;DHT22;32083;47.360;9.650;2024-03-29T10:41:05;19.20;71.80
46378;DHT22;32083;47.360;9.650;2024-03-29T10:43:33;19.20;72.30
46378;DHT22;32083;47.360;9.650;2024-03-29T10:46:00;19.30;71.10
46378;DHT22;32083;47.360;9.650;2024-03-29T10:48:27;19.30;71.60
46378;DHT22;32083;47.360;9.650;2024-03-29T10:50:58;19.30;73.30
46378;DHT22;32083;47.360;9.650;2024-03-29T10:53:25;19.30;72.60
46378;DHT22;32083;47.360;9.650;2024-03-29T10:55:54;19.30;70.90
46378;DHT22;32083;47.360;9.650;2024-03-29T10:58:22;19.30;70.10
46378;DHT22;32083;47.360;9.650;2024-03-29T11:00:53;19.40;72.60
46378;DHT22;32083;47.360;9.650;2024-03-29T11:03:43;19.60;73.10
46378;DHT22;32083;47.360;9.650;2024-03-29T11:06:13;19.90;73.50
46378;DHT22;32083;47.360;9.650;2024-03-29T11:08:40;20.10;72.30
46378;DHT22;32083;47.360;9.650;2024-03-29T11:11:12;20.30;72.80
46378;DHT22;32083;47.360;9.650;2024-03-29T11:13:49;20.50;73.00
46378;DHT22;32083;47.360;9.650;2024-03-29T11:16:18;20.60;73.50
46378;DHT22;32083;47.360;9.650;2024-03-29T11:18:47;20.70;71.50
46378;DHT22;32083;47.360;9.650;2024-03-29T11:21:17;20.80;72.10
46378;DHT22;32083;47.360;9.650;2024-03-29T11:23:53;21.00;72.00
46378;DHT22;32083;47.360;9.650;2024-03-29T11:26:21;21.00;69.50
46378;DHT22;32083;47.360;9.650;2024-03-29T11:28:51;21.00;71.20
46378;DHT22;32083;47.360;9.650;2024-03-29T11:31:18;21.00;70.90
46378;DHT22;32083;47.360;9.650;2024-03-29T11:33:48;21.00;72.50
46378;DHT22;32083;47.360;9.650;2024-03-29T11:36:22;21.10;70.90
46378;DHT22;32083;47.360;9.650;2024-03-29T11:38:51;21.20;70.70
46378;DHT22;32083;47.360;9.650;2024-03-29T11:41:22;21.30;71.00
46378;DHT22;32083;47.360;9.650;2024-03-29T11:43:53;21.40;71.30
46378;DHT22;32083;47.360;9.650;2024-03-29T11:46:19;21.50;71.70
46378;DHT22;32083;47.360;9.650;2024-03-29T11:48:46;21.60;70.40
46378;DHT22;32083;47.360;9.650;2024-03-29T11:51:16;21.70;70.50
46378;DHT22;32083;47.360;9.650;2024-03-29T11:53:43;21.70;69.10
46378;DHT22;32083;47.360;9.650;2024-03-29T11:56:10;21.80;69.20
46378;DHT22;32083;47.360;9.650;2024-03-29T11:58:37;22.00;69.10
46378;DHT22;32083;47.360;9.650;2024-03-29T12:01:04;22.00;69.30
46378;DHT22;32083;47.360;9.650;2024-03-29T12:03:31;22.20;69.70
46378;DHT22;32083;47.360;9.650;2024-03-29T12:06:01;22.20;68.30
46378;DHT22;32083;47.360;9.650;2024-03-29T12:08:32;22.20;68.20
46378;DHT22;32083;47.360;9.650;2024-03-29T12:11:00;22.20;68.40
46378;DHT22;32083;47.360;9.650;2024-03-29T12:13:26;22.20;67.30
46378;DHT22;32083;47.360;9.650;2024-03-29T12:15:53;22.20;68.30
46378;DHT22;32083;47.360;9.650;2024-03-29T12:18:23;22.20;67.20
46378;DHT22;32083;47.360;9.650;2024-03-29T12:20:50;22.00;68.10
46378;DHT22;32083;47.360;9.650;2024-03-29T12:23:18;22.00;67.20
46378;DHT22;32083;47.360;9.650;2024-03-29T12:25:45;21.90;64.50
46378;DHT22;32083;47.360;9.650;2024-03-29T12:28:12;22.00;66.30
46378;DHT22;32083;47.360;9.650;2024-03-29T12:30:46;22.00;66.50
46378;DHT22;32083;47.360;9.650;2024-03-29T12:33:13;21.90;67.00
46378;DHT22;32083;47.360;9.650;2024-03-29T12:35:46;21.90;68.40
46378;DHT22;32083;47.360;9.650;2024-03-29T12:38:16;22.00;67.20
46378;DHT22;32083;47.360;9.650;2024-03-29T12:40:44;21.90;66.50
46378;DHT22;32083;47.360;9.650;2024-03-29T12:43:11;21.80;66.70
46378;DHT22;32083;47.360;9.650;2024-03-29T12:45:40;21.60;65.20
46378;DHT22;32083;47.360;9.650;2024-03-29T12:48:17;21.60;67.00
46378;DHT22;32083;47.360;9.650;2024-03-29T12:50:45;21.60;66.00
46378;DHT22;32083;47.360;9.650;2024-03-29T12:53:13;21.70;67.30
46378;DHT22;32083;47.360;9.650;2024-03-29T12:55:43;21.80;68.40
46378;DHT22;32083;47.360;9.650;2024-03-29T12:58:15;21.70;67.60
46378;DHT22;32083;47.360;9.650;2024-03-29T13:00:42;21.60;67.10
46378;DHT22;32083;47.360;9.650;2024-03-29T13:03:09;21.50;67.40
46378;DHT22;32083;47.360;9.650;2024-03-29T13:05:36;21.50;66.80
46378;DHT22;32083;47.360;9.650;2024-03-29T13:08:08;21.30;66.90
46378;DHT22;32083;47.360;9.650;2024-03-29T13:10:36;21.30;65.10
46378;DHT22;32083;47.360;9.650;2024-03-29T13:13:02;21.30;66.80
46378;DHT22;32083;47.360;9.650;2024-03-29T13:15:28;21.30;66.10
46378;DHT22;32083;47.360;9.650;2024-03-29T13:17:56;21.30;66.60
46378;DHT22;32083;47.360;9.650;2024-03-29T13:20:22;21.20;65.70
46378;DHT22;32083;47.360;9.650;2024-03-29T13:22:50;21.20;65.10
46378;DHT22;32083;47.360;9.650;2024-03-29T13:25:17;21.30;66.10
46378;DHT22;32083;47.360;9.650;2024-03-29T13:27:44;21.30;64.60
46378;DHT22;32083;47.360;9.650;2024-03-29T13:30:12;21.30;63.90
46378;DHT22;32083;47.360;9.650;2024-03-29T13:32:40;21.20;65.60
46378;DHT22;32083;47.360;9.650;2024-03-29T13:35:08;21.20;65.70
46378;DHT22;32083;47.360;9.650;2024-03-29T13:37:43;21.20;66.40
46378;DHT22;32083;47.360;9.650;2024-03-29T13:40:09;21.10;65.10
46378;DHT22;32083;47.360;9.650;2024-03-29T13:42:36;21.20;64.10
46378;DHT22;32083;47.360;9.650;2024-03-29T13:45:06;21.20;64.50
46378;DHT22;32083;47.360;9.650;2024-03-29T13:47:33;21.20;63.50
46378;DHT22;32083;47.360;9.650;2024-03-29T13:49:59;21.20;64.50
46378;DHT22;32083;47.360;9.650;2024-03-29T13:52:25;21.20;64.20
46378;DHT22;32083;47.360;9.650;2024-03-29T13:54:53;21.10;63.20
46378;DHT22;32083;47.360;9.650;2024-03-29T13:57:19;21.20;62.90
46378;DHT22;32083;47.360;9.650;2024-03-29T13:59:46;21.20;63.80
46378;DHT22;32083;47.360;9.650;2024-03-29T14:02:13;21.20;63.20
46378;DHT22;32083;47.360;9.650;2024-03-29T14:04:40;21.20;64.00
46378;DHT22;32083;47.360;9.650;2024-03-29T14:07:06;21.20;62.20
46378;DHT22;32083;47.360;9.650;2024-03-29T14:09:37;21.20;62.20
46378;DHT22;32083;47.360;9.650;2024-03-29T14:12:04;21.30;61.20
46378;DHT22;32083;47.360;9.650;2024-03-29T14:14:31;21.40;63.60
46378;DHT22;32083;47.360;9.650;2024-03-29T14:16:57;21.40;61.50
46378;DHT22;32083;47.360;9.650;2024-03-29T14:19:23;21.40;61.00
46378;DHT22;32083;47.360;9.650;2024-03-29T14:21:50;21.40;64.00
46378;DHT22;32083;47.360;9.650;2024-03-29T14:24:16;21.20;61.60
46378;DHT22;32083;47.360;9.650;2024-03-29T14:26:44;21.10;63.40
46378;DHT22;32083;47.360;9.650;2024-03-29T14:29:10;21.10;63.30
46378;DHT22;32083;47.360;9.650;2024-03-29T14:31:40;21.00;62.20
46378;DHT22;32083;47.360;9.650;2024-03-29T14:34:06;20.90;63.40
46378;DHT22;32083;47.360;9.650;2024-03-29T14:36:32;20.80;63.70
46378;DHT22;32083;47.360;9.650;2024-03-29T14:38:59;20.70;63.40
46378;DHT22;32083;47.360;9.650;2024-03-29T14:41:27;20.60;61.90
46378;DHT22;32083;47.360;9.650;2024-03-29T14:43:54;20.60;60.40
46378;DHT22;32083;47.360;9.650;2024-03-29T14:46:23;20.60;62.30
46378;DHT22;32083;47.360;9.650;2024-03-29T14:48:49;20.60;61.30
46378;DHT22;32083;47.360;9.650;2024-03-29T14:51:16;20.60;61.70
46378;DHT22;32083;47.360;9.650;2024-03-29T14:53:42;20.60;61.10
46378;DHT22;32083;47.360;9.650;2024-03-29T14:56:16;20.50;62.80
46378;DHT22;32083;47.360;9.650;2024-03-29T14:58:42;20.40;62.00
46378;DHT22;32083;47.360;9.650;2024-03-29T15:01:08;20.40;62.50
46378;DHT22;32083;47.360;9.650;2024-03-29T15:03:34;20.40;63.90
46378;DHT22;32083;47.360;9.650;2024-03-29T15:06:00;20.30;62.90
46378;DHT22;32083;47.360;9.650;2024-03-29T15:08:27;20.30;62.50
46378;DHT22;32083;47.360;9.650;2024-03-29T15:10:59;20.20;62.20
46378;DHT22;32083;47.360;9.650;2024-03-29T15:13:25;20.30;62.30
46378;DHT22;32083;47.360;9.650;2024-03-29T15:15:59;20.30;60.60
46378;DHT22;32083;47.360;9.650;2024-03-29T15:18:26;20.40;61.10
46378;DHT22;32083;47.360;9.650;2024-03-29T15:20:59;20.50;60.70
46378;DHT22;32083;47.360;9.650;2024-03-29T15:23:27;20.60;59.00
46378;DHT22;32083;47.360;9.650;2024-03-29T15:25:58;20.60;63.80
46378;DHT22;32083;47.360;9.650;2024-03-29T15:28:25;20.70;59.70
46378;DHT22;32083;47.360;9.650;2024-03-29T15:31:17;20.70;60.80
46378;DHT22;32083;47.360;9.650;2024-03-29T15:33:46;20.60;62.50
46378;DHT22;32083;47.360;9.650;2024-03-29T15:36:16;20.50;63.20
46378;DHT22;32083;47.360;9.650;2024-03-29T15:38:42;20.50;62.20
46378;DHT22;32083;47.360;9.650;2024-03-29T15:41:08;20.60;62.80
46378;DHT22;32083;47.360;9.650;2024-03-29T15:43:35;20.70;62.00
46378;DHT22;32083;47.360;9.650;2024-03-29T15:46:07;20.80;63.10
46378;DHT22;32083;47.360;9.650;2024-03-29T15:48:34;20.90;61.90
46378;DHT22;32083;47.360;9.650;2024-03-29T15:51:00;21.00;60.40
46378;DHT22;32083;47.360;9.650;2024-03-29T15:53:26;21.00;62.80
46378;DHT22;32083;47.360;9.650;2024-03-29T15:55:52;21.00;60.50
46378;DHT22;32083;47.360;9.650;2024-03-29T15:58:18;21.00;61.90
46378;DHT22;32083;47.360;9.650;2024-03-29T16:00:44;21.00;61.60
46378;DHT22;32083;47.360;9.650;2024-03-29T16:03:12;20.90;64.30
46378;DHT22;32083;47.360;9.650;2024-03-29T16:05:43;20.90;63.40
46378;DHT22;32083;47.360;9.650;2024-03-29T16:08:11;20.80;62.30
46378;DHT22;32083;47.360;9.650;2024-03-29T16:13:20;20.50;63.70
46378;DHT22;32083;47.360;9.650;2024-03-29T16:15:47;20.40;63.60
46378;DHT22;32083;47.360;9.650;2024-03-29T16:18:13;20.30;63.60
46378;DHT22;32083;47.360;9.650;2024-03-29T16:20:40;20.30;62.10
46378;DHT22;32083;47.360;9.650;2024-03-29T16:23:07;20.40;61.60
46378;DHT22;32083;47.360;9.650;2024-03-29T16:25:33;20.40;61.30
46378;DHT22;32083;47.360;9.650;2024-03-29T16:27:59;20.50;61.90
46378;DHT22;32083;47.360;9.650;2024-03-29T16:30:26;20.50;63.60
46378;DHT22;32083;47.360;9.650;2024-03-29T16:32:52;20.50;58.60
46378;DHT22;32083;47.360;9.650;2024-03-29T16:35:18;20.50;61.40
46378;DHT22;32083;47.360;9.650;2024-03-29T16:37:45;20.50;60.00
46378;DHT22;32083;47.360;9.650;2024-03-29T16:40:11;20.40;60.50
46378;DHT22;32083;47.360;9.650;2024-03-29T16:42:37;20.40;58.70
46378;DHT22;32083;47.360;9.650;2024-03-29T16:45:04;20.40;58.80
46378;DHT22;32083;47.360;9.650;2024-03-29T16:47:30;20.30;61.00
46378;DHT22;32083;47.360;9.650;2024-03-29T16:49:56;20.20;59.60
46378;DHT22;32083;47.360;9.650;2024-03-29T16:52:22;20.20;59.40
46378;DHT22;32083;47.360;9.650;2024-03-29T16:54:49;20.20;60.30
46378;DHT22;32083;47.360;9.650;2024-03-29T16:57:17;20.20;60.10
46378;DHT22;32083;47.360;9.650;2024-03-29T16:59:43;20.10;60.20
46378;DHT22;32083;47.360;9.650;2024-03-29T17:02:10;20.10;59.20
46378;DHT22;32083;47.360;9.650;2024-03-29T17:04:36;20.10;59.50
46378;DHT22;32083;47.360;9.650;2024-03-29T17:07:02;20.10;60.10
46378;DHT22;32083;47.360;9.650;2024-03-29T17:09:42;20.10;59.30
46378;DHT22;32083;47.360;9.650;2024-03-29T17:12:09;20.10;58.70
46378;DHT22;32083;47.360;9.650;2024-03-29T17:14:36;20.20;58.50
46378;DHT22;32083;47.360;9.650;2024-03-29T17:17:03;20.20;58.40
46378;DHT22;32083;47.360;9.650;2024-03-29T17:19:30;20.10;59.10
46378;DHT22;32083;47.360;9.650;2024-03-29T17:21:56;20.10;59.60
46378;DHT22;32083;47.360;9.650;2024-03-29T17:24:23;20.00;59.30
46378;DHT22;32083;47.360;9.650;2024-03-29T17:26:49;20.10;58.70
46378;DHT22;32083;47.360;9.650;2024-03-29T17:29:15;20.00;58.80
46378;DHT22;32083;47.360;9.650;2024-03-29T17:31:42;20.00;58.30
46378;DHT22;32083;47.360;9.650;2024-03-29T17:34:08;20.00;56.70
46378;DHT22;32083;47.360;9.650;2024-03-29T17:36:36;20.00;57.30
46378;DHT22;32083;47.360;9.650;2024-03-29T17:39:02;20.00;57.80
46378;DHT22;32083;47.360;9.650;2024-03-29T17:41:29;20.00;57.70
46378;DHT22;32083;47.360;9.650;2024-03-29T17:43:56;20.00;58.50
46378;DHT22;32083;47.360;9.650;2024-03-29T17:46:22;19.90;57.30
46378;DHT22;32083;47.360;9.650;2024-03-29T17:48:49;19.90;56.20
46378;DHT22;32083;47.360;9.650;2024-03-29T17:51:15;19.90;58.10
46378;DHT22;32083;47.360;9.650;2024-03-29T17:53:41;19.90;56.50
46378;DHT22;32083;47.360;9.650;2024-03-29T17:56:07;19.90;56.80
46378;DHT22;32083;47.360;9.650;2024-03-29T17:58:33;19.90;57.80
46378;DHT22;32083;47.360;9.650;2024-03-29T18:01:00;19.90;56.60
46378;DHT22;32083;47.360;9.650;2024-03-29T18:03:26;19.90;57.60
46378;DHT22;32083;47.360;9.650;2024-03-29T18:05:52;20.00;56.50
46378;DHT22;32083;47.360;9.650;2024-03-29T18:08:20;19.90;57.70
46378;DHT22;32083;47.360;9.650;2024-03-29T18:10:46;19.80;58.00
46378;DHT22;32083;47.360;9.650;2024-03-29T18:13:12;19.90;57.50
46378;DHT22;32083;47.360;9.650;2024-03-29T18:15:46;19.80;58.30
46378;DHT22;32083;47.360;9.650;2024-03-29T18:18:12;19.70;58.40
46378;DHT22;32083;47.360;9.650;2024-03-29T18:20:39;19.70;56.30
46378;DHT22;32083;47.360;9.650;2024-03-29T18:23:05;19.70;59.50
46378;DHT22;32083;47.360;9.650;2024-03-29T18:25:32;19.70;57.70
46378;DHT22;32083;47.360;9.650;2024-03-29T18:28:00;19.70;58.20
46378;DHT22;32083;47.360;9.650;2024-03-29T18:30:27;19.70;56.40
46378;DHT22;32083;47.360;9.650;2024-03-29T18:32:53;19.70;57.50
46378;DHT22;32083;47.360;9.650;2024-03-29T18:35:19;19.70;57.30
46378;DHT22;32083;47.360;9.650;2024-03-29T18:37:45;19.70;56.60
46378;DHT22;32083;47.360;9.650;2024-03-29T18:40:12;19.70;57.40
46378;DHT22;32083;47.360;9.650;2024-03-29T18:42:42;19.70;58.20
46378;DHT22;32083;47.360;9.650;2024-03-29T18:45:08;19.60;56.80
46378;DHT22;32083;47.360;9.650;2024-03-29T18:47:34;19.70;57.80
46378;DHT22;32083;47.360;9.650;2024-03-29T18:50:00;19.60;57.80
46378;DHT22;32083;47.360;9.650;2024-03-29T18:52:27;19.60;57.30
46378;DHT22;32083;47.360;9.650;2024-03-29T18:54:56;19.60;57.30
46378;DHT22;32083;47.360;9.650;2024-03-29T18:57:22;19.70;55.40
46378;DHT22;32083;47.360;9.650;2024-03-29T18:59:51;19.60;57.00
46378;DHT22;32083;47.360;9.650;2024-03-29T19:02:17;19.70;56.70
46378;DHT22;32083;47.360;9.650;2024-03-29T19:04:43;19.60;56.40
46378;DHT22;32083;47.360;9.650;2024-03-29T19:07:09;19.70;55.30
46378;DHT22;32083;47.360;9.650;2024-03-29T19:09:35;19.70;54.50
46378;DHT22;32083;47.360;9.650;2024-03-29T19:12:02;19.80;54.40
46378;DHT22;32083;47.360;9.650;2024-03-29T19:14:28;19.80;55.60
46378;DHT22;32083;47.360;9.650;2024-03-29T19:16:55;19.80;55.30
46378;DHT22;32083;47.360;9.650;2024-03-29T19:19:23;19.70;54.70
46378;DHT22;32083;47.360;9.650;2024-03-29T19:21:51;19.70;56.20
46378;DHT22;32083;47.360;9.650;2024-03-29T19:24:18;19.70;55.00
46378;DHT22;32083;47.360;9.650;2024-03-29T19:26:45;19.70;55.00
46378;DHT22;32083;47.360;9.650;2024-03-29T19:29:12;19.60;56.20
46378;DHT22;32083;47.360;9.650;2024-03-29T19:31:41;19.60;54.50
46378;DHT22;32083;47.360;9.650;2024-03-29T19:34:08;19.80;52.80
46378;DHT22;32083;47.360;9.650;2024-03-29T19:36:34;19.90;53.70
46378;DHT22;32083;47.360;9.650;2024-03-29T19:39:00;19.90;54.00
46378;DHT22;32083;47.360;9.650;2024-03-29T19:41:27;19.90;54.90
46378;DHT22;32083;47.360;9.650;2024-03-29T19:43:54;19.70;55.40
46378;DHT22;32083;47.360;9.650;2024-03-29T19:46:21;19.70;56.20
46378;DHT22;32083;47.360;9.650;2024-03-29T19:48:48;19.60;54.90
46378;DHT22;32083;47.360;9.650;2024-03-29T19:51:13;19.60;54.80
46378;DHT22;32083;47.360;9.650;2024-03-29T19:53:39;19.50;56.50
46378;DHT22;32083;47.360;9.650;2024-03-29T19:56:05;19.50;53.20
46378;DHT22;32083;47.360;9.650;2024-03-29T19:58:32;19.60;54.80
46378;DHT22;32083;47.360;9.650;2024-03-29T20:00:58;19.60;55.20
46378;DHT22;32083;47.360;9.650;2024-03-29T20:03:24;19.60;54.70
46378;DHT22;32083;47.360;9.650;2024-03-29T20:05:50;19.70;54.10
46378;DHT22;32083;47.360;9.650;2024-03-29T20:08:16;19.90;53.70
46378;DHT22;32083;47.360;9.650;2024-03-29T20:10:43;19.90;52.80
46378;DHT22;32083;47.360;9.650;2024-03-29T20:13:11;19.90;54.10
46378;DHT22;32083;47.360;9.650;2024-03-29T20:15:43;19.70;55.20
46378;DHT22;32083;47.360;9.650;2024-03-29T20:18:10;19.60;56.10
46378;DHT22;32083;47.360;9.650;2024-03-29T20:20:44;19.50;55.70
46378;DHT22;32083;47.360;9.650;2024-03-29T20:23:10;19.40;57.30
46378;DHT22;32083;47.360;9.650;2024-03-29T20:25:36;19.30;57.70
46378;DHT22;32083;47.360;9.650;2024-03-29T20:28:03;19.20;56.50
46378;DHT22;32083;47.360;9.650;2024-03-29T20:30:30;19.30;56.60
46378;DHT22;32083;47.360;9.650;2024-03-29T20:32:56;19.30;56.10